sensor_id;sensor_type;location;lat;lon;timestamp;P1;durP1;ratioP1;P2;durP2;ratioP2
24159;SDS011;62385;41.594;23.808;2024-02-16T00:01:58;1.03;;;0.67;;
24159;SDS011;62385;41.594;23.808;2024-02-16T00:04:23;6.17;;;0.47;;
24159;SDS011;62385;41.594;23.808;2024-02-16T00:06:49;0.20;;;0.10;;
24159;SDS011;62385;41.594;23.808;2024-02-16T00:09:14;1.10;;;0.70;;
24159;SDS011;62385;41.594;23.808;2024-02-16T00:11:40;0.83;;;0.57;;
24159;SDS011;62385;41.594;23.808;2024-02-16T00:14:05;0.20;;;0.10;;
24159;SDS011;62385;41.594;23.808;2024-02-16T00:16:31;0.20;;;0.20;;
24159;SDS011;62385;41.594;23.808;2024-02-16T00:18:56;0.20;;;0.20;;
24159;SDS011;62385;41.594;23.808;2024-02-16T00:21:22;0.20;;;0.20;;
24159;SDS011;62385;41.594;23.808;2024-02-16T00:23:47;0.53;;;0.47;;
24159;SDS011;62385;41.594;23.808;2024-02-16T00:26:13;0.30;;;0.30;;
24159;SDS011;62385;41.594;23.808;2024-02-16T00:28:38;0.30;;;0.30;;
24159;SDS011;62385;41.594;23.808;2024-02-16T00:31:04;2.93;;;1.87;;
24159;SDS011;62385;41.594;23.808;2024-02-16T00:33:30;0.87;;;0.87;;
24159;SDS011;62385;41.594;23.808;2024-02-16T00:35:56;1.50;;;1.40;;
24159;SDS011;62385;41.594;23.808;2024-02-16T00:38:21;1.00;;;0.93;;
24159;SDS011;62385;41.594;23.808;2024-02-16T00:40:48;0.73;;;0.73;;
24159;SDS011;62385;41.594;23.808;2024-02-16T00:43:14;0.60;;;0.43;;
24159;SDS011;62385;41.594;23.808;2024-02-16T00:45:40;0.30;;;0.30;;
24159;SDS011;62385;41.594;23.808;2024-02-16T00:48:09;0.90;;;0.57;;
24159;SDS011;62385;41.594;23.808;2024-02-16T00:50:35;0.20;;;0.20;;
24159;SDS011;62385;41.594;23.808;2024-02-16T00:53:00;1.70;;;0.63;;
24159;SDS011;62385;41.594;23.808;2024-02-16T00:55:26;0.23;;;0.23;;
24159;SDS011;62385;41.594;23.808;2024-02-16T00:57:52;0.50;;;0.50;;
24159;SDS011;62385;41.594;23.808;2024-02-16T01:00:17;0.23;;;0.13;;
24159;SDS011;62385;41.594;23.808;2024-02-16T01:02:44;0.30;;;0.20;;
24159;SDS011;62385;41.594;23.808;2024-02-16T01:05:10;1.10;;;0.30;;
24159;SDS011;62385;41.594;23.808;2024-02-16T01:07:36;0.20;;;0.10;;
24159;SDS011;62385;41.594;23.808;2024-02-16T01:10:02;0.60;;;0.50;;
24159;SDS011;62385;41.594;23.808;2024-02-16T01:12:30;0.20;;;0.10;;
24159;SDS011;62385;41.594;23.808;2024-02-16T01:14:56;0.67;;;0.63;;
24159;SDS011;62385;41.594;23.808;2024-02-16T01:17:22;0.63;;;0.50;;
24159;SDS011;62385;41.594;23.808;2024-02-16T01:19:47;0.23;;;0.20;;
24159;SDS011;62385;41.594;23.808;2024-02-16T01:22:13;0.20;;;0.13;;
24159;SDS011;62385;41.594;23.808;2024-02-16T01:24:41;0.40;;;0.30;;
24159;SDS011;62385;41.594;23.808;2024-02-16T01:27:07;1.30;;;1.20;;
24159;SDS011;62385;41.594;23.808;2024-02-16T01:29:32;0.20;;;0.10;;
24159;SDS011;62385;41.594;23.808;2024-02-16T01:31:58;0.40;;;0.20;;
24159;SDS011;62385;41.594;23.808;2024-02-16T01:34:23;0.30;;;0.23;;
24159;SDS011;62385;41.594;23.808;2024-02-16T01:36:49;0.80;;;0.13;;
24159;SDS011;62385;41.594;23.808;2024-02-16T01:39:14;0.83;;;0.70;;
24159;SDS011;62385;41.594;23.808;2024-02-16T01:41:40;0.20;;;0.10;;
24159;SDS011;62385;41.594;23.808;2024-02-16T01:44:06;0.20;;;0.10;;
24159;SDS011;62385;41.594;23.808;2024-02-16T01:46:33;0.23;;;0.20;;
24159;SDS011;62385;41.594;23.808;2024-02-16T01:49:00;0.40;;;0.20;;
24159;SDS011;62385;41.594;23.808;2024-02-16T01:51:26;0.53;;;0.53;;
24159;SDS011;62385;41.594;23.808;2024-02-16T01:53:52;6.50;;;0.67;;
24159;SDS011;62385;41.594;23.808;2024-02-16T01:56:20;0.20;;;0.00;;
24159;SDS011;62385;41.594;23.808;2024-02-16T01:58:47;0.20;;;0.10;;
24159;SDS011;62385;41.594;23.808;2024-02-16T02:01:14;0.33;;;0.33;;
24159;SDS011;62385;41.594;23.808;2024-02-16T02:03:40;0.63;;;0.63;;
24159;SDS011;62385;41.594;23.808;2024-02-16T02:06:05;0.40;;;0.40;;
24159;SDS011;62385;41.594;23.808;2024-02-16T02:08:31;0.20;;;0.07;;
24159;SDS011;62385;41.594;23.808;2024-02-16T02:10:56;0.20;;;0.10;;
24159;SDS011;62385;41.594;23.808;2024-02-16T02:13:22;0.20;;;0.10;;
24159;SDS011;62385;41.594;23.808;2024-02-16T02:15:47;0.20;;;0.10;;
24159;SDS011;62385;41.594;23.808;2024-02-16T02:18:13;0.20;;;0.00;;
24159;SDS011;62385;41.594;23.808;2024-02-16T02:20:39;0.57;;;0.40;;
24159;SDS011;62385;41.594;23.808;2024-02-16T02:23:05;0.20;;;0.00;;
24159;SDS011;62385;41.594;23.808;2024-02-16T02:25:30;0.87;;;0.43;;
24159;SDS011;62385;41.594;23.808;2024-02-16T02:27:56;0.50;;;0.50;;
24159;SDS011;62385;41.594;23.808;2024-02-16T02:30:21;0.77;;;0.67;;
24159;SDS011;62385;41.594;23.808;2024-02-16T02:32:49;0.20;;;0.20;;
24159;SDS011;62385;41.594;23.808;2024-02-16T02:35:16;0.20;;;0.10;;
24159;SDS011;62385;41.594;23.808;2024-02-16T02:37:43;0.47;;;0.47;;
24159;SDS011;62385;41.594;23.808;2024-02-16T02:40:09;0.40;;;0.20;;
24159;SDS011;62385;41.594;23.808;2024-02-16T02:42:35;1.47;;;1.37;;
24159;SDS011;62385;41.594;23.808;2024-02-16T02:45:01;4.10;;;0.93;;
24159;SDS011;62385;41.594;23.808;2024-02-16T02:47:27;2.10;;;0.57;;
24159;SDS011;62385;41.594;23.808;2024-02-16T02:49:52;0.20;;;0.20;;
24159;SDS011;62385;41.594;23.808;2024-02-16T02:52:18;0.23;;;0.07;;
24159;SDS011;62385;41.594;23.808;2024-02-16T02:54:44;1.63;;;0.90;;
24159;SDS011;62385;41.594;23.808;2024-02-16T02:57:10;0.53;;;0.53;;
24159;SDS011;62385;41.594;23.808;2024-02-16T02:59:35;0.40;;;0.20;;
24159;SDS011;62385;41.594;23.808;2024-02-16T03:02:01;0.77;;;0.77;;
24159;SDS011;62385;41.594;23.808;2024-02-16T03:04:26;1.07;;;0.47;;
24159;SDS011;62385;41.594;23.808;2024-02-16T03:06:52;0.20;;;0.20;;
24159;SDS011;62385;41.594;23.808;2024-02-16T03:09:17;0.37;;;0.33;;
24159;SDS011;62385;41.594;23.808;2024-02-16T03:11:43;0.20;;;0.10;;
24159;SDS011;62385;41.594;23.808;2024-02-16T03:14:09;1.70;;;0.53;;
24159;SDS011;62385;41.594;23.808;2024-02-16T03:16:34;0.20;;;0.00;;
24159;SDS011;62385;41.594;23.808;2024-02-16T03:19:00;0.20;;;0.20;;
24159;SDS011;62385;41.594;23.808;2024-02-16T03:21:25;0.30;;;0.30;;
24159;SDS011;62385;41.594;23.808;2024-02-16T03:23:51;2.33;;;1.00;;
24159;SDS011;62385;41.594;23.808;2024-02-16T03:26:17;0.27;;;0.23;;
24159;SDS011;62385;41.594;23.808;2024-02-16T03:28:47;1.37;;;1.20;;
24159;SDS011;62385;41.594;23.808;2024-02-16T03:31:17;0.67;;;0.57;;
24159;SDS011;62385;41.594;23.808;2024-02-16T03:33:47;0.30;;;0.30;;
24159;SDS011;62385;41.594;23.808;2024-02-16T03:36:14;0.70;;;0.50;;
24159;SDS011;62385;41.594;23.808;2024-02-16T03:38:43;0.33;;;0.33;;
24159;SDS011;62385;41.594;23.808;2024-02-16T03:41:17;1.27;;;1.07;;
24159;SDS011;62385;41.594;23.808;2024-02-16T03:43:44;0.53;;;0.53;;
24159;SDS011;62385;41.594;23.808;2024-02-16T03:46:09;1.43;;;1.33;;
24159;SDS011;62385;41.594;23.808;2024-02-16T03:48:35;0.70;;;0.70;;
24159;SDS011;62385;41.594;23.808;2024-02-16T03:51:01;5.03;;;0.97;;
24159;SDS011;62385;41.594;23.808;2024-02-16T03:53:28;2.40;;;1.20;;
24159;SDS011;62385;41.594;23.808;2024-02-16T03:55:54;2.00;;;1.70;;
24159;SDS011;62385;41.594;23.808;2024-02-16T03:58:19;0.63;;;0.63;;
24159;SDS011;62385;41.594;23.808;2024-02-16T04:00:45;11.83;;;1.13;;
24159;SDS011;62385;41.594;23.808;2024-02-16T04:03:10;0.43;;;0.20;;
24159;SDS011;62385;41.594;23.808;2024-02-16T04:05:39;1.23;;;0.83;;
24159;SDS011;62385;41.594;23.808;2024-02-16T04:08:05;0.20;;;0.10;;
24159;SDS011;62385;41.594;23.808;2024-02-16T04:10:31;0.50;;;0.30;;
24159;SDS011;62385;41.594;23.808;2024-02-16T04:12:58;1.27;;;1.17;;
24159;SDS011;62385;41.594;23.808;2024-02-16T04:15:23;0.20;;;0.10;;
24159;SDS011;62385;41.594;23.808;2024-02-16T04:17:49;0.60;;;0.57;;
24159;SDS011;62385;41.594;23.808;2024-02-16T04:20:18;5.67;;;2.40;;
24159;SDS011;62385;41.594;23.808;2024-02-16T04:22:44;4.57;;;1.40;;
24159;SDS011;62385;41.594;23.808;2024-02-16T04:25:10;2.47;;;2.27;;
24159;SDS011;62385;41.594;23.808;2024-02-16T04:27:35;1.53;;;1.43;;
24159;SDS011;62385;41.594;23.808;2024-02-16T04:30:05;0.30;;;0.30;;
24159;SDS011;62385;41.594;23.808;2024-02-16T04:32:31;0.30;;;0.23;;
24159;SDS011;62385;41.594;23.808;2024-02-16T04:34:58;1.13;;;1.03;;
24159;SDS011;62385;41.594;23.808;2024-02-16T04:37:26;0.40;;;0.40;;
24159;SDS011;62385;41.594;23.808;2024-02-16T04:39:51;0.70;;;0.70;;
24159;SDS011;62385;41.594;23.808;2024-02-16T04:42:17;0.23;;;0.23;;
24159;SDS011;62385;41.594;23.808;2024-02-16T04:44:43;0.73;;;0.57;;
24159;SDS011;62385;41.594;23.808;2024-02-16T04:47:08;2.00;;;1.80;;
24159;SDS011;62385;41.594;23.808;2024-02-16T04:49:34;2.43;;;0.97;;
24159;SDS011;62385;41.594;23.808;2024-02-16T04:52:00;2.47;;;1.20;;
24159;SDS011;62385;41.594;23.808;2024-02-16T04:54:28;1.60;;;0.87;;
24159;SDS011;62385;41.594;23.808;2024-02-16T04:56:54;1.00;;;1.00;;
24159;SDS011;62385;41.594;23.808;2024-02-16T04:59:20;3.03;;;1.53;;
24159;SDS011;62385;41.594;23.808;2024-02-16T05:01:46;0.33;;;0.27;;
24159;SDS011;62385;41.594;23.808;2024-02-16T05:04:12;3.73;;;1.03;;
24159;SDS011;62385;41.594;23.808;2024-02-16T05:06:39;0.70;;;0.67;;
24159;SDS011;62385;41.594;23.808;2024-02-16T05:09:05;0.23;;;0.20;;
24159;SDS011;62385;41.594;23.808;2024-02-16T05:11:34;0.40;;;0.40;;
24159;SDS011;62385;41.594;23.808;2024-02-16T05:13:59;0.33;;;0.27;;
24159;SDS011;62385;41.594;23.808;2024-02-16T05:16:25;0.47;;;0.40;;
24159;SDS011;62385;41.594;23.808;2024-02-16T05:18:51;1.63;;;1.53;;
24159;SDS011;62385;41.594;23.808;2024-02-16T05:21:17;1.73;;;0.70;;
24159;SDS011;62385;41.594;23.808;2024-02-16T05:23:43;3.97;;;0.50;;
24159;SDS011;62385;41.594;23.808;2024-02-16T05:26:08;3.83;;;2.27;;
24159;SDS011;62385;41.594;23.808;2024-02-16T05:28:34;2.37;;;1.47;;
24159;SDS011;62385;41.594;23.808;2024-02-16T05:31:18;1.23;;;0.87;;
24159;SDS011;62385;41.594;23.808;2024-02-16T05:33:44;0.30;;;0.30;;
24159;SDS011;62385;41.594;23.808;2024-02-16T05:36:11;5.27;;;3.03;;
24159;SDS011;62385;41.594;23.808;2024-02-16T05:38:39;1.53;;;0.97;;
24159;SDS011;62385;41.594;23.808;2024-02-16T05:41:09;5.93;;;3.80;;
24159;SDS011;62385;41.594;23.808;2024-02-16T05:43:36;4.10;;;3.73;;
24159;SDS011;62385;41.594;23.808;2024-02-16T05:46:03;11.47;;;2.60;;
24159;SDS011;62385;41.594;23.808;2024-02-16T05:48:32;4.47;;;2.53;;
24159;SDS011;62385;41.594;23.808;2024-02-16T05:51:00;7.20;;;2.87;;
24159;SDS011;62385;41.594;23.808;2024-02-16T05:53:26;10.63;;;8.87;;
24159;SDS011;62385;41.594;23.808;2024-02-16T05:55:53;24.13;;;8.80;;
24159;SDS011;62385;41.594;23.808;2024-02-16T05:58:18;12.17;;;10.87;;
24159;SDS011;62385;41.594;23.808;2024-02-16T06:00:44;13.87;;;9.63;;
24159;SDS011;62385;41.594;23.808;2024-02-16T06:03:12;13.10;;;9.87;;
24159;SDS011;62385;41.594;23.808;2024-02-16T06:05:38;8.07;;;5.23;;
24159;SDS011;62385;41.594;23.808;2024-02-16T06:08:05;4.50;;;3.10;;
24159;SDS011;62385;41.594;23.808;2024-02-16T06:10:32;5.10;;;4.63;;
24159;SDS011;62385;41.594;23.808;2024-02-16T06:12:58;9.33;;;5.80;;
24159;SDS011;62385;41.594;23.808;2024-02-16T06:15:24;5.10;;;2.60;;
24159;SDS011;62385;41.594;23.808;2024-02-16T06:17:50;3.83;;;3.57;;
24159;SDS011;62385;41.594;23.808;2024-02-16T06:20:16;11.17;;;3.07;;
24159;SDS011;62385;41.594;23.808;2024-02-16T06:22:42;5.13;;;4.73;;
24159;SDS011;62385;41.594;23.808;2024-02-16T06:25:07;2.63;;;2.43;;
24159;SDS011;62385;41.594;23.808;2024-02-16T06:27:33;1.00;;;0.97;;
24159;SDS011;62385;41.594;23.808;2024-02-16T06:29:59;1.70;;;1.60;;
24159;SDS011;62385;41.594;23.808;2024-02-16T06:32:25;3.30;;;3.00;;
24159;SDS011;62385;41.594;23.808;2024-02-16T06:34:51;3.67;;;2.30;;
24159;SDS011;62385;41.594;23.808;2024-02-16T06:37:17;3.80;;;3.07;;
24159;SDS011;62385;41.594;23.808;2024-02-16T06:39:43;1.77;;;1.63;;
24159;SDS011;62385;41.594;23.808;2024-02-16T06:42:08;3.07;;;2.80;;
24159;SDS011;62385;41.594;23.808;2024-02-16T06:44:38;0.73;;;0.73;;
24159;SDS011;62385;41.594;23.808;2024-02-16T06:47:04;1.80;;;1.70;;
24159;SDS011;62385;41.594;23.808;2024-02-16T06:49:30;3.27;;;1.70;;
24159;SDS011;62385;41.594;23.808;2024-02-16T06:51:56;4.37;;;3.00;;
24159;SDS011;62385;41.594;23.808;2024-02-16T06:54:22;1.80;;;1.70;;
24159;SDS011;62385;41.594;23.808;2024-02-16T06:56:47;1.70;;;1.50;;
24159;SDS011;62385;41.594;23.808;2024-02-16T06:59:13;4.07;;;2.27;;
24159;SDS011;62385;41.594;23.808;2024-02-16T07:01:38;4.07;;;3.77;;
24159;SDS011;62385;41.594;23.808;2024-02-16T07:04:04;6.77;;;5.70;;
24159;SDS011;62385;41.594;23.808;2024-02-16T07:06:30;10.47;;;6.63;;
24159;SDS011;62385;41.594;23.808;2024-02-16T07:08:56;8.97;;;3.73;;
24159;SDS011;62385;41.594;23.808;2024-02-16T07:11:21;19.70;;;3.40;;
24159;SDS011;62385;41.594;23.808;2024-02-16T07:13:47;4.87;;;3.60;;
24159;SDS011;62385;41.594;23.808;2024-02-16T07:16:13;5.20;;;2.73;;
24159;SDS011;62385;41.594;23.808;2024-02-16T07:18:39;4.83;;;4.43;;
24159;SDS011;62385;41.594;23.808;2024-02-16T07:21:04;1.87;;;1.77;;
24159;SDS011;62385;41.594;23.808;2024-02-16T07:23:30;0.80;;;0.67;;
24159;SDS011;62385;41.594;23.808;2024-02-16T07:25:55;2.20;;;1.80;;
24159;SDS011;62385;41.594;23.808;2024-02-16T07:28:23;1.47;;;1.37;;
24159;SDS011;62385;41.594;23.808;2024-02-16T07:30:49;1.37;;;1.17;;
24159;SDS011;62385;41.594;23.808;2024-02-16T07:33:15;2.37;;;2.00;;
24159;SDS011;62385;41.594;23.808;2024-02-16T07:35:41;5.90;;;3.33;;
24159;SDS011;62385;41.594;23.808;2024-02-16T07:38:06;2.40;;;2.20;;
24159;SDS011;62385;41.594;23.808;2024-02-16T07:40:32;3.00;;;2.23;;
24159;SDS011;62385;41.594;23.808;2024-02-16T07:42:58;1.90;;;1.57;;
24159;SDS011;62385;41.594;23.808;2024-02-16T07:45:23;2.57;;;2.07;;
24159;SDS011;62385;41.594;23.808;2024-02-16T07:47:49;4.93;;;3.03;;
24159;SDS011;62385;41.594;23.808;2024-02-16T07:50:19;6.57;;;1.67;;
24159;SDS011;62385;41.594;23.808;2024-02-16T07:52:45;1.90;;;1.80;;
24159;SDS011;62385;41.594;23.808;2024-02-16T07:55:11;1.63;;;1.53;;
24159;SDS011;62385;41.594;23.808;2024-02-16T07:57:37;1.40;;;1.30;;
24159;SDS011;62385;41.594;23.808;2024-02-16T08:00:03;1.03;;;0.93;;
24159;SDS011;62385;41.594;23.808;2024-02-16T08:02:32;0.63;;;0.63;;
24159;SDS011;62385;41.594;23.808;2024-02-16T08:04:58;1.60;;;1.23;;
24159;SDS011;62385;41.594;23.808;2024-02-16T08:07:23;1.37;;;1.27;;
24159;SDS011;62385;41.594;23.808;2024-02-16T08:09:49;3.57;;;1.13;;
24159;SDS011;62385;41.594;23.808;2024-02-16T08:12:15;2.03;;;1.60;;
24159;SDS011;62385;41.594;23.808;2024-02-16T08:14:41;0.77;;;0.77;;
24159;SDS011;62385;41.594;23.808;2024-02-16T08:17:07;0.93;;;0.93;;
24159;SDS011;62385;41.594;23.808;2024-02-16T08:19:34;0.57;;;0.57;;
24159;SDS011;62385;41.594;23.808;2024-02-16T08:22:04;0.93;;;0.87;;
24159;SDS011;62385;41.594;23.808;2024-02-16T08:24:32;0.77;;;0.77;;
24159;SDS011;62385;41.594;23.808;2024-02-16T08:26:58;1.97;;;1.80;;
24159;SDS011;62385;41.594;23.808;2024-02-16T08:29:24;2.97;;;1.30;;
24159;SDS011;62385;41.594;23.808;2024-02-16T08:31:50;0.67;;;0.67;;
24159;SDS011;62385;41.594;23.808;2024-02-16T08:34:16;0.60;;;0.60;;
24159;SDS011;62385;41.594;23.808;2024-02-16T08:36:48;1.17;;;1.07;;
24159;SDS011;62385;41.594;23.808;2024-02-16T08:39:15;1.40;;;1.30;;
24159;SDS011;62385;41.594;23.808;2024-02-16T08:41:41;1.27;;;1.07;;
24159;SDS011;62385;41.594;23.808;2024-02-16T08:44:09;3.60;;;2.43;;
24159;SDS011;62385;41.594;23.808;2024-02-16T08:46:38;1.33;;;0.80;;
24159;SDS011;62385;41.594;23.808;2024-02-16T08:49:04;4.33;;;3.13;;
24159;SDS011;62385;41.594;23.808;2024-02-16T08:51:34;1.37;;;1.27;;
24159;SDS011;62385;41.594;23.808;2024-02-16T08:54:00;3.80;;;1.50;;
24159;SDS011;62385;41.594;23.808;2024-02-16T08:56:26;1.90;;;1.70;;
24159;SDS011;62385;41.594;23.808;2024-02-16T08:58:52;3.17;;;2.50;;
24159;SDS011;62385;41.594;23.808;2024-02-16T09:01:18;3.50;;;1.47;;
24159;SDS011;62385;41.594;23.808;2024-02-16T09:03:43;1.07;;;0.50;;
24159;SDS011;62385;41.594;23.808;2024-02-16T09:06:09;0.57;;;0.57;;
24159;SDS011;62385;41.594;23.808;2024-02-16T09:08:34;1.40;;;1.30;;
24159;SDS011;62385;41.594;23.808;2024-02-16T09:11:00;0.43;;;0.43;;
24159;SDS011;62385;41.594;23.808;2024-02-16T09:13:33;0.90;;;0.83;;
24159;SDS011;62385;41.594;23.808;2024-02-16T09:16:01;2.27;;;0.93;;
24159;SDS011;62385;41.594;23.808;2024-02-16T09:18:30;0.67;;;0.50;;
24159;SDS011;62385;41.594;23.808;2024-02-16T09:20:56;1.40;;;0.70;;
24159;SDS011;62385;41.594;23.808;2024-02-16T09:23:21;1.30;;;1.20;;
24159;SDS011;62385;41.594;23.808;2024-02-16T09:25:47;1.40;;;0.80;;
24159;SDS011;62385;41.594;23.808;2024-02-16T09:28:13;0.30;;;0.30;;
24159;SDS011;62385;41.594;23.808;2024-02-16T09:30:39;2.20;;;1.60;;
24159;SDS011;62385;41.594;23.808;2024-02-16T09:33:04;0.40;;;0.33;;
24159;SDS011;62385;41.594;23.808;2024-02-16T09:35:32;0.97;;;0.97;;
24159;SDS011;62385;41.594;23.808;2024-02-16T09:37:58;1.70;;;1.60;;
24159;SDS011;62385;41.594;23.808;2024-02-16T09:40:24;1.37;;;0.90;;
24159;SDS011;62385;41.594;23.808;2024-02-16T09:42:49;0.67;;;0.47;;
24159;SDS011;62385;41.594;23.808;2024-02-16T09:45:15;1.07;;;0.70;;
24159;SDS011;62385;41.594;23.808;2024-02-16T09:47:45;0.90;;;0.50;;
24159;SDS011;62385;41.594;23.808;2024-02-16T09:50:14;0.50;;;0.50;;
24159;SDS011;62385;41.594;23.808;2024-02-16T09:52:41;0.30;;;0.30;;
24159;SDS011;62385;41.594;23.808;2024-02-16T09:55:08;1.03;;;0.77;;
24159;SDS011;62385;41.594;23.808;2024-02-16T09:57:36;1.03;;;0.60;;
24159;SDS011;62385;41.594;23.808;2024-02-16T10:00:02;2.00;;;1.43;;
24159;SDS011;62385;41.594;23.808;2024-02-16T10:05:19;0.40;;;0.40;;
24159;SDS011;62385;41.594;23.808;2024-02-16T10:07:46;2.60;;;0.60;;
24159;SDS011;62385;41.594;23.808;2024-02-16T10:10:30;0.63;;;0.63;;
24159;SDS011;62385;41.594;23.808;2024-02-16T10:13:06;0.20;;;0.20;;
24159;SDS011;62385;41.594;23.808;2024-02-16T10:15:33;0.73;;;0.73;;
24159;SDS011;62385;41.594;23.808;2024-02-16T10:18:03;2.40;;;0.83;;
24159;SDS011;62385;41.594;23.808;2024-02-16T10:20:31;0.90;;;0.90;;
24159;SDS011;62385;41.594;23.808;2024-02-16T10:25:29;1.83;;;1.67;;
24159;SDS011;62385;41.594;23.808;2024-02-16T10:27:54;0.67;;;0.67;;
24159;SDS011;62385;41.594;23.808;2024-02-16T10:30:23;34.53;;;1.17;;
24159;SDS011;62385;41.594;23.808;2024-02-16T10:32:51;0.97;;;0.43;;
24159;SDS011;62385;41.594;23.808;2024-02-16T10:35:17;0.20;;;0.10;;
24159;SDS011;62385;41.594;23.808;2024-02-16T10:37:43;1.17;;;0.70;;
24159;SDS011;62385;41.594;23.808;2024-02-16T10:40:10;0.77;;;0.77;;
24159;SDS011;62385;41.594;23.808;2024-02-16T10:42:38;0.30;;;0.10;;
24159;SDS011;62385;41.594;23.808;2024-02-16T10:45:07;11.87;;;1.87;;
24159;SDS011;62385;41.594;23.808;2024-02-16T10:47:33;0.20;;;0.20;;
24159;SDS011;62385;41.594;23.808;2024-02-16T10:49:58;1.30;;;0.88;;
24159;SDS011;62385;41.594;23.808;2024-02-16T10:52:25;0.73;;;0.37;;
24159;SDS011;62385;41.594;23.808;2024-02-16T10:54:51;0.20;;;0.20;;
24159;SDS011;62385;41.594;23.808;2024-02-16T10:57:17;0.52;;;0.45;;
24159;SDS011;62385;41.594;23.808;2024-02-16T10:59:43;1.30;;;0.43;;
24159;SDS011;62385;41.594;23.808;2024-02-16T11:02:10;0.20;;;0.10;;
24159;SDS011;62385;41.594;23.808;2024-02-16T11:04:36;0.20;;;0.10;;
24159;SDS011;62385;41.594;23.808;2024-02-16T11:07:09;0.20;;;0.10;;
24159;SDS011;62385;41.594;23.808;2024-02-16T11:09:38;0.52;;;0.52;;
24159;SDS011;62385;41.594;23.808;2024-02-16T11:12:05;1.05;;;0.40;;
24159;SDS011;62385;41.594;23.808;2024-02-16T11:14:42;0.45;;;0.35;;
24159;SDS011;62385;41.594;23.808;2024-02-16T11:17:09;0.20;;;0.00;;
24159;SDS011;62385;41.594;23.808;2024-02-16T11:19:36;0.45;;;0.45;;
24159;SDS011;62385;41.594;23.808;2024-02-16T11:22:05;0.30;;;0.25;;
24159;SDS011;62385;41.594;23.808;2024-02-16T11:24:36;0.47;;;0.20;;
24159;SDS011;62385;41.594;23.808;2024-02-16T11:27:03;0.80;;;0.30;;
24159;SDS011;62385;41.594;23.808;2024-02-16T11:29:34;0.20;;;0.20;;
24159;SDS011;62385;41.594;23.808;2024-02-16T11:32:00;0.68;;;0.35;;
24159;SDS011;62385;41.594;23.808;2024-02-16T11:34:28;1.33;;;1.23;;
24159;SDS011;62385;41.594;23.808;2024-02-16T11:36:54;1.05;;;0.95;;
24159;SDS011;62385;41.594;23.808;2024-02-16T11:39:21;0.80;;;0.65;;
24159;SDS011;62385;41.594;23.808;2024-02-16T11:41:47;0.50;;;0.38;;
24159;SDS011;62385;41.594;23.808;2024-02-16T11:44:13;0.30;;;0.30;;
24159;SDS011;62385;41.594;23.808;2024-02-16T11:46:41;0.60;;;0.60;;
24159;SDS011;62385;41.594;23.808;2024-02-16T11:49:07;16.95;;;0.63;;
24159;SDS011;62385;41.594;23.808;2024-02-16T11:51:33;0.20;;;0.20;;
24159;SDS011;62385;41.594;23.808;2024-02-16T11:53:59;0.80;;;0.57;;
24159;SDS011;62385;41.594;23.808;2024-02-16T11:56:25;1.15;;;1.05;;
24159;SDS011;62385;41.594;23.808;2024-02-16T11:58:54;0.63;;;0.45;;
24159;SDS011;62385;41.594;23.808;2024-02-16T12:01:20;0.22;;;0.22;;
24159;SDS011;62385;41.594;23.808;2024-02-16T12:03:46;1.15;;;0.77;;
24159;SDS011;62385;41.594;23.808;2024-02-16T12:06:19;1.02;;;0.47;;
24159;SDS011;62385;41.594;23.808;2024-02-16T12:08:46;1.38;;;0.93;;
24159;SDS011;62385;41.594;23.808;2024-02-16T12:11:12;24.02;;;1.00;;
24159;SDS011;62385;41.594;23.808;2024-02-16T12:13:39;0.50;;;0.40;;
24159;SDS011;62385;41.594;23.808;2024-02-16T12:16:05;0.28;;;0.10;;
24159;SDS011;62385;41.594;23.808;2024-02-16T12:18:38;0.28;;;0.20;;
24159;SDS011;62385;41.594;23.808;2024-02-16T12:21:07;0.82;;;0.60;;
24159;SDS011;62385;41.594;23.808;2024-02-16T12:23:35;1.65;;;1.08;;
24159;SDS011;62385;41.594;23.808;2024-02-16T12:26:01;0.50;;;0.40;;
24159;SDS011;62385;41.594;23.808;2024-02-16T12:28:28;0.50;;;0.43;;
24159;SDS011;62385;41.594;23.808;2024-02-16T12:30:57;0.30;;;0.25;;
24159;SDS011;62385;41.594;23.808;2024-02-16T12:33:23;1.23;;;0.75;;
24159;SDS011;62385;41.594;23.808;2024-02-16T12:35:49;0.77;;;0.77;;
24159;SDS011;62385;41.594;23.808;2024-02-16T12:38:15;0.55;;;0.30;;
24159;SDS011;62385;41.594;23.808;2024-02-16T12:40:50;1.58;;;0.60;;
24159;SDS011;62385;41.594;23.808;2024-02-16T12:43:16;0.30;;;0.30;;
24159;SDS011;62385;41.594;23.808;2024-02-16T12:45:41;0.60;;;0.60;;
24159;SDS011;62385;41.594;23.808;2024-02-16T12:48:07;0.43;;;0.20;;
24159;SDS011;62385;41.594;23.808;2024-02-16T12:50:34;0.30;;;0.20;;
24159;SDS011;62385;41.594;23.808;2024-02-16T12:53:01;1.38;;;0.40;;
24159;SDS011;62385;41.594;23.808;2024-02-16T12:55:26;1.08;;;0.85;;
24159;SDS011;62385;41.594;23.808;2024-02-16T12:57:53;0.50;;;0.30;;
24159;SDS011;62385;41.594;23.808;2024-02-16T13:00:18;0.73;;;0.40;;
24159;SDS011;62385;41.594;23.808;2024-02-16T13:02:44;1.05;;;0.30;;
24159;SDS011;62385;41.594;23.808;2024-02-16T13:05:10;1.27;;;0.68;;
24159;SDS011;62385;41.594;23.808;2024-02-16T13:07:36;0.20;;;0.10;;
24159;SDS011;62385;41.594;23.808;2024-02-16T13:10:04;1.00;;;0.95;;
24159;SDS011;62385;41.594;23.808;2024-02-16T13:12:31;0.32;;;0.32;;
24159;SDS011;62385;41.594;23.808;2024-02-16T13:14:57;0.30;;;0.30;;
24159;SDS011;62385;41.594;23.808;2024-02-16T13:17:23;0.47;;;0.38;;
24159;SDS011;62385;41.594;23.808;2024-02-16T13:19:48;0.50;;;0.20;;
24159;SDS011;62385;41.594;23.808;2024-02-16T13:22:14;0.20;;;0.20;;
24159;SDS011;62385;41.594;23.808;2024-02-16T13:24:40;0.60;;;0.57;;
24159;SDS011;62385;41.594;23.808;2024-02-16T13:27:06;0.85;;;0.40;;
24159;SDS011;62385;41.594;23.808;2024-02-16T13:29:32;1.10;;;0.60;;
24159;SDS011;62385;41.594;23.808;2024-02-16T13:31:58;0.82;;;0.68;;
24159;SDS011;62385;41.594;23.808;2024-02-16T13:34:24;0.52;;;0.40;;
24159;SDS011;62385;41.594;23.808;2024-02-16T13:36:52;0.28;;;0.28;;
24159;SDS011;62385;41.594;23.808;2024-02-16T13:39:18;0.47;;;0.38;;
24159;SDS011;62385;41.594;23.808;2024-02-16T13:41:45;0.25;;;0.25;;
24159;SDS011;62385;41.594;23.808;2024-02-16T13:44:12;1.95;;;1.10;;
24159;SDS011;62385;41.594;23.808;2024-02-16T13:46:38;0.90;;;0.50;;
24159;SDS011;62385;41.594;23.808;2024-02-16T13:49:04;0.32;;;0.28;;
24159;SDS011;62385;41.594;23.808;2024-02-16T13:51:29;0.40;;;0.40;;
24159;SDS011;62385;41.594;23.808;2024-02-16T13:53:55;0.40;;;0.40;;
24159;SDS011;62385;41.594;23.808;2024-02-16T13:56:20;0.77;;;0.73;;
24159;SDS011;62385;41.594;23.808;2024-02-16T13:58:46;1.08;;;0.43;;
24159;SDS011;62385;41.594;23.808;2024-02-16T14:01:12;1.23;;;0.55;;
24159;SDS011;62385;41.594;23.808;2024-02-16T14:03:39;2.67;;;0.85;;
24159;SDS011;62385;41.594;23.808;2024-02-16T14:06:05;0.55;;;0.52;;
24159;SDS011;62385;41.594;23.808;2024-02-16T14:08:31;6.90;;;1.27;;
24159;SDS011;62385;41.594;23.808;2024-02-16T14:10:57;0.52;;;0.52;;
24159;SDS011;62385;41.594;23.808;2024-02-16T14:13:23;0.20;;;0.10;;
24159;SDS011;62385;41.594;23.808;2024-02-16T14:15:50;0.40;;;0.35;;
24159;SDS011;62385;41.594;23.808;2024-02-16T14:18:15;1.38;;;1.15;;
24159;SDS011;62385;41.594;23.808;2024-02-16T14:20:41;0.35;;;0.25;;
24159;SDS011;62385;41.594;23.808;2024-02-16T14:23:06;1.05;;;0.43;;
24159;SDS011;62385;41.594;23.808;2024-02-16T14:25:33;0.57;;;0.40;;
24159;SDS011;62385;41.594;23.808;2024-02-16T14:28:00;0.30;;;0.20;;
24159;SDS011;62385;41.594;23.808;2024-02-16T14:30:25;0.57;;;0.50;;
24159;SDS011;62385;41.594;23.808;2024-02-16T14:32:51;0.90;;;0.52;;
24159;SDS011;62385;41.594;23.808;2024-02-16T14:35:17;3.80;;;0.30;;